createdAt,value
2023-01-25T00:00:45.399Z,100.00
2023-01-25T00:03:47.924Z,100.00
2023-01-25T00:06:51.080Z,100.00
2023-01-25T00:09:53.613Z,100.00
2023-01-25T00:12:57.073Z,100.00
2023-01-25T00:16:04.410Z,100.00
2023-01-25T00:19:08.046Z,100.00
2023-01-25T00:22:10.600Z,100.00
2023-01-25T00:25:13.150Z,100.00
2023-01-25T00:28:15.669Z,100.00
2023-01-25T00:31:35.438Z,100.00
2023-01-25T00:34:45.851Z,100.00
2023-01-25T00:37:50.130Z,100.00
2023-01-25T00:40:53.761Z,100.00
2023-01-25T00:43:56.464Z,100.00
2023-01-25T00:46:59.006Z,100.00
2023-01-25T00:50:03.021Z,100.00
2023-01-25T00:53:05.692Z,100.00
2023-01-25T00:56:08.255Z,100.00
2023-01-25T00:59:11.784Z,100.00
2023-01-25T01:02:14.603Z,100.00
2023-01-25T01:05:17.253Z,100.00
2023-01-25T01:08:19.808Z,100.00
2023-01-25T01:11:22.338Z,100.00
2023-01-25T01:14:24.905Z,100.00
2023-01-25T01:17:27.445Z,100.00
2023-01-25T01:20:30.043Z,100.00
2023-01-25T01:23:32.874Z,100.00
2023-01-25T01:26:35.475Z,100.00
2023-01-25T01:29:37.974Z,100.00
2023-01-25T01:32:40.951Z,100.00
2023-01-25T01:35:46.975Z,100.00
2023-01-25T01:38:49.773Z,100.00
2023-01-25T01:41:52.304Z,100.00
2023-01-25T01:44:56.110Z,99.80
2023-01-25T01:48:00.082Z,99.68
2023-01-25T01:51:12.003Z,99.81
2023-01-25T01:54:17.050Z,99.38
2023-01-25T01:57:26.309Z,99.29
2023-01-25T02:00:33.294Z,98.97
2023-01-25T02:03:37.542Z,98.74
2023-01-25T02:06:55.554Z,98.80
2023-01-25T02:09:59.234Z,98.83
2023-01-25T02:13:01.858Z,99.21
2023-01-25T02:16:05.131Z,99.06
2023-01-25T02:19:08.400Z,99.01
2023-01-25T02:22:13.583Z,98.79
2023-01-25T02:25:17.931Z,99.00
2023-01-25T02:28:35.568Z,99.37
2023-01-25T02:31:38.165Z,98.78
2023-01-25T02:34:40.751Z,99.23
2023-01-25T02:37:44.716Z,99.50
2023-01-25T02:40:58.035Z,99.57
2023-01-25T02:44:04.875Z,99.68
2023-01-25T02:47:07.392Z,100.00
2023-01-25T02:50:10.729Z,100.00
2023-01-25T02:53:13.283Z,100.00
2023-01-25T02:56:16.511Z,100.00
2023-01-25T02:59:19.273Z,100.00
2023-01-25T03:02:26.622Z,100.00
2023-01-25T03:05:29.128Z,100.00
2023-01-25T03:08:31.713Z,100.00
2023-01-25T03:11:34.505Z,100.00
2023-01-25T03:14:37.725Z,100.00
2023-01-25T03:17:40.364Z,100.00
2023-01-25T03:20:42.998Z,100.00
2023-01-25T03:23:46.721Z,100.00
2023-01-25T03:27:12.035Z,100.00
2023-01-25T03:30:19.489Z,100.00
2023-01-25T03:33:22.787Z,100.00
2023-01-25T03:36:26.001Z,100.00
2023-01-25T03:39:29.201Z,100.00
2023-01-25T03:42:31.908Z,100.00
2023-01-25T03:45:34.607Z,100.00
2023-01-25T03:48:37.468Z,100.00
2023-01-25T03:51:40.734Z,100.00
2023-01-25T03:54:43.481Z,100.00
2023-01-25T03:57:49.207Z,100.00
2023-01-25T04:00:55.596Z,100.00
2023-01-25T04:03:58.277Z,100.00
2023-01-25T04:07:01.041Z,100.00
2023-01-25T04:10:06.102Z,100.00
2023-01-25T04:13:10.265Z,100.00
2023-01-25T04:16:12.906Z,100.00
2023-01-25T04:19:33.763Z,100.00
2023-01-25T04:22:38.244Z,100.00
2023-01-25T04:25:42.219Z,100.00
2023-01-25T04:28:48.632Z,100.00
2023-01-25T04:31:51.993Z,100.00
2023-01-25T04:34:54.733Z,100.00
2023-01-25T04:38:00.132Z,100.00
2023-01-25T04:41:10.251Z,100.00
2023-01-25T04:44:13.057Z,100.00
2023-01-25T04:47:17.216Z,100.00
2023-01-25T04:50:19.784Z,100.00
2023-01-25T04:53:22.555Z,100.00
2023-01-25T04:56:26.050Z,100.00
2023-01-25T04:59:31.362Z,100.00
2023-01-25T05:02:34.020Z,100.00
2023-01-25T05:05:36.694Z,100.00
2023-01-25T05:08:44.160Z,100.00
2023-01-25T05:11:46.872Z,100.00
2023-01-25T05:15:00.931Z,100.00
2023-01-25T05:18:04.315Z,100.00
2023-01-25T05:21:31.839Z,100.00
2023-01-25T05:24:35.739Z,100.00
2023-01-25T05:27:42.165Z,100.00
2023-01-25T05:31:07.912Z,100.00
2023-01-25T05:34:11.256Z,100.00
2023-01-25T05:37:15.676Z,100.00
2023-01-25T05:40:20.362Z,100.00
2023-01-25T05:43:24.538Z,100.00
2023-01-25T05:46:28.744Z,100.00
2023-01-25T05:49:32.692Z,100.00
2023-01-25T05:52:35.948Z,100.00
2023-01-25T05:55:38.727Z,100.00
2023-01-25T05:58:45.341Z,100.00
2023-01-25T06:01:48.273Z,100.00
2023-01-25T06:04:52.769Z,100.00
2023-01-25T06:07:55.586Z,100.00
2023-01-25T06:11:07.340Z,100.00
2023-01-25T06:14:10.148Z,100.00
2023-01-25T06:17:14.132Z,100.00
2023-01-25T06:20:35.386Z,100.00
2023-01-25T06:23:41.369Z,100.00
2023-01-25T06:26:44.620Z,100.00
2023-01-25T06:29:47.254Z,100.00
2023-01-25T06:32:50.893Z,100.00
2023-01-25T06:35:53.515Z,100.00
2023-01-25T06:38:56.176Z,100.00
2023-01-25T06:41:58.754Z,100.00
2023-01-25T06:45:01.731Z,100.00
2023-01-25T06:48:04.981Z,100.00
2023-01-25T06:51:09.757Z,100.00
2023-01-25T06:54:12.410Z,100.00
2023-01-25T06:57:14.980Z,100.00
2023-01-25T07:00:18.220Z,100.00
2023-01-25T07:03:21.300Z,100.00
2023-01-25T07:06:25.274Z,100.00
2023-01-25T07:09:28.322Z,100.00
2023-01-25T07:12:31.846Z,99.53
2023-01-25T07:15:35.102Z,99.46
2023-01-25T07:18:38.353Z,99.26
2023-01-25T07:21:41.078Z,99.31
2023-01-25T07:24:50.178Z,99.63
2023-01-25T07:27:54.435Z,99.45
2023-01-25T07:30:57.416Z,99.31
2023-01-25T07:34:00.706Z,99.08
2023-01-25T07:37:03.343Z,99.11
2023-01-25T07:40:07.070Z,99.22
2023-01-25T07:43:09.890Z,98.92
2023-01-25T07:46:14.286Z,97.90
2023-01-25T07:49:17.134Z,97.78
2023-01-25T07:52:19.806Z,97.10
2023-01-25T07:55:22.962Z,97.33
2023-01-25T07:58:26.093Z,97.28
2023-01-25T08:01:31.332Z,96.91
2023-01-25T08:04:34.142Z,96.63
2023-01-25T08:07:37.468Z,95.69
2023-01-25T08:10:40.202Z,95.84
2023-01-25T08:13:50.093Z,95.54
2023-01-25T08:16:53.638Z,95.33
2023-01-25T08:19:56.451Z,95.71
2023-01-25T08:22:59.084Z,95.62
2023-01-25T08:26:03.488Z,94.60
2023-01-25T08:29:06.872Z,94.40
2023-01-25T08:32:10.055Z,94.46
2023-01-25T08:35:12.790Z,94.29
2023-01-25T08:38:15.850Z,94.23
2023-01-25T08:41:21.996Z,94.38
2023-01-25T08:44:26.257Z,93.88
2023-01-25T08:47:28.875Z,93.35
2023-01-25T08:50:32.411Z,93.49
2023-01-25T08:53:35.682Z,94.04
2023-01-25T08:56:42.740Z,93.40
2023-01-25T08:59:45.451Z,93.37
2023-01-25T09:02:48.757Z,93.86
2023-01-25T09:05:51.684Z,93.63
2023-01-25T09:08:54.738Z,93.56
2023-01-25T09:11:57.420Z,93.89
2023-01-25T09:15:00.235Z,93.90
2023-01-25T09:18:03.258Z,92.55
2023-01-25T09:21:12.994Z,93.21
2023-01-25T09:24:16.028Z,92.85
2023-01-25T09:27:19.667Z,93.11
2023-01-25T09:30:33.499Z,93.30
2023-01-25T09:33:41.558Z,94.32
2023-01-25T09:36:44.715Z,94.12
2023-01-25T09:39:47.213Z,94.04
2023-01-25T09:43:14.610Z,93.50
2023-01-25T09:46:42.650Z,93.18
2023-01-25T09:50:05.745Z,93.15
2023-01-25T09:53:15.499Z,93.68
2023-01-25T09:56:28.227Z,94.07
2023-01-25T09:59:31.403Z,93.43
2023-01-25T10:02:55.042Z,94.04
2023-01-25T10:05:59.517Z,94.15
2023-01-25T10:09:20.070Z,94.09
2023-01-25T10:12:24.990Z,93.94
2023-01-25T10:15:33.480Z,94.16
2023-01-25T10:19:11.307Z,94.06
2023-01-25T10:22:22.160Z,94.24
2023-01-25T10:25:30.303Z,94.54
2023-01-25T10:28:48.211Z,95.02
2023-01-25T10:31:54.056Z,94.22
2023-01-25T10:35:02.279Z,93.43
2023-01-25T10:38:18.093Z,93.24
2023-01-25T10:41:33.252Z,93.44
2023-01-25T10:44:38.041Z,93.03
2023-01-25T10:47:43.524Z,92.56
2023-01-25T10:50:49.138Z,92.67
2023-01-25T10:54:02.774Z,93.14
2023-01-25T10:57:09.892Z,93.11
2023-01-25T11:00:23.775Z,93.33
2023-01-25T11:03:35.662Z,92.54
2023-01-25T11:06:40.960Z,91.89
2023-01-25T11:09:44.231Z,91.73
2023-01-25T11:12:47.100Z,91.95
2023-01-25T11:15:57.244Z,91.73
2023-01-25T11:19:01.319Z,92.33
2023-01-25T11:22:19.174Z,91.93
2023-01-25T11:25:24.967Z,91.46
2023-01-25T11:28:27.811Z,92.67
2023-01-25T11:31:30.511Z,91.47
2023-01-25T11:34:33.337Z,91.52
2023-01-25T11:37:54.584Z,92.04
2023-01-25T11:41:24.854Z,91.77
2023-01-25T11:44:50.294Z,92.22
2023-01-25T11:48:11.133Z,91.70
2023-01-25T11:51:22.653Z,91.91
2023-01-25T11:54:34.488Z,91.63
2023-01-25T11:57:58.852Z,92.53
2023-01-25T12:01:10.346Z,92.02
2023-01-25T12:04:36.545Z,92.37
2023-01-25T12:08:03.947Z,91.16
2023-01-25T12:11:07.142Z,89.63
2023-01-25T12:14:27.708Z,89.34
2023-01-25T12:17:42.020Z,89.23
2023-01-25T12:20:53.495Z,89.05
2023-01-25T12:24:14.810Z,88.79
2023-01-25T12:27:18.076Z,88.77
2023-01-25T12:30:27.597Z,89.04
2023-01-25T12:33:36.748Z,89.00
2023-01-25T12:36:50.188Z,88.94
2023-01-25T12:39:59.021Z,89.55
2023-01-25T12:43:03.012Z,89.39
2023-01-25T12:46:29.684Z,89.14
2023-01-25T12:49:45.842Z,88.51
2023-01-25T12:53:18.876Z,89.01
2023-01-25T12:56:27.392Z,88.72
2023-01-25T12:59:49.251Z,88.95
2023-01-25T13:03:31.453Z,88.77
2023-01-25T13:06:48.119Z,89.01
2023-01-25T13:10:00.204Z,89.41
2023-01-25T13:13:04.385Z,89.79
2023-01-25T13:16:30.704Z,89.38
2023-01-25T13:19:33.757Z,89.46
2023-01-25T13:22:46.134Z,89.01
2023-01-25T13:25:49.090Z,89.83
2023-01-25T13:28:56.585Z,89.81
2023-01-25T13:32:00.505Z,90.63
2023-01-25T13:35:03.901Z,91.13
2023-01-25T13:38:32.952Z,90.60
2023-01-25T13:41:35.756Z,91.27
2023-01-25T13:44:44.171Z,91.29
2023-01-25T13:48:07.121Z,91.33
2023-01-25T13:51:14.544Z,91.42
2023-01-25T13:54:18.233Z,91.70
2023-01-25T13:57:27.017Z,92.56
2023-01-25T14:00:30.562Z,93.35
2023-01-25T14:03:47.893Z,93.81
2023-01-25T14:06:59.950Z,94.03
2023-01-25T14:10:08.708Z,94.47
2023-01-25T14:13:14.935Z,94.58
2023-01-25T14:16:18.493Z,94.77
2023-01-25T14:19:22.529Z,95.47
2023-01-25T14:22:31.048Z,95.91
2023-01-25T14:25:34.102Z,96.26
2023-01-25T14:28:37.282Z,96.52
2023-01-25T14:31:40.417Z,96.89
2023-01-25T14:34:43.361Z,97.93
2023-01-25T14:37:46.814Z,97.75
2023-01-25T14:40:50.938Z,98.17
2023-01-25T14:44:05.052Z,98.14
2023-01-25T14:47:30.220Z,98.23
2023-01-25T14:50:40.029Z,98.14
2023-01-25T14:53:47.107Z,98.42
2023-01-25T14:56:52.721Z,98.79
2023-01-25T14:59:56.506Z,98.77
2023-01-25T15:03:01.009Z,98.74
2023-01-25T15:06:04.926Z,99.10
2023-01-25T15:09:32.106Z,99.50
2023-01-25T15:12:34.971Z,99.96
2023-01-25T15:15:59.817Z,100.00
2023-01-25T15:19:03.326Z,100.00
2023-01-25T15:22:08.776Z,100.00
2023-01-25T15:25:15.688Z,100.00
2023-01-25T15:28:34.641Z,100.00
2023-01-25T15:31:38.428Z,100.00
2023-01-25T15:34:41.410Z,100.00
2023-01-25T15:37:44.735Z,100.00
2023-01-25T15:40:48.051Z,100.00
2023-01-25T15:43:58.424Z,100.00
2023-01-25T15:47:07.189Z,100.00
2023-01-25T15:50:18.469Z,100.00
2023-01-25T15:53:21.495Z,100.00
2023-01-25T15:56:30.404Z,100.00
2023-01-25T15:59:33.480Z,99.89
2023-01-25T16:02:36.403Z,99.10
2023-01-25T16:05:39.404Z,98.56
2023-01-25T16:08:42.592Z,97.70
2023-01-25T16:11:46.395Z,97.13
2023-01-25T16:14:49.488Z,96.68
2023-01-25T16:17:52.217Z,95.92
2023-01-25T16:20:54.961Z,95.55
2023-01-25T16:23:57.890Z,95.23
2023-01-25T16:27:01.298Z,95.24
2023-01-25T16:30:05.123Z,96.76
2023-01-25T16:33:08.528Z,97.68
2023-01-25T16:36:16.728Z,98.88
2023-01-25T16:39:22.662Z,100.00
2023-01-25T16:42:25.376Z,100.00
2023-01-25T16:45:29.223Z,100.00
2023-01-25T16:48:32.429Z,100.00
2023-01-25T16:51:37.135Z,100.00
2023-01-25T16:54:40.108Z,100.00
2023-01-25T16:57:45.449Z,100.00
2023-01-25T17:00:48.465Z,100.00
2023-01-25T17:03:52.986Z,100.00
2023-01-25T17:06:59.367Z,100.00
2023-01-25T17:10:04.442Z,100.00
2023-01-25T17:13:09.369Z,100.00
2023-01-25T17:16:12.146Z,100.00
2023-01-25T17:19:16.704Z,100.00
2023-01-25T17:22:19.710Z,100.00
2023-01-25T17:25:23.625Z,100.00
2023-01-25T17:28:27.667Z,100.00
2023-01-25T17:31:34.995Z,100.00
2023-01-25T17:34:38.160Z,100.00
2023-01-25T17:37:41.639Z,100.00
2023-01-25T17:40:44.869Z,100.00
2023-01-25T17:43:55.310Z,100.00
2023-01-25T17:46:59.570Z,100.00
2023-01-25T17:50:02.766Z,100.00
2023-01-25T17:53:07.046Z,100.00
2023-01-25T17:56:11.959Z,100.00
2023-01-25T17:59:14.911Z,100.00
2023-01-25T18:02:18.559Z,100.00
2023-01-25T18:05:21.933Z,100.00
2023-01-25T18:08:25.541Z,100.00
2023-01-25T18:11:31.311Z,100.00
2023-01-25T18:14:35.620Z,100.00
2023-01-25T18:17:39.006Z,100.00
2023-01-25T18:20:42.416Z,100.00
2023-01-25T18:23:49.037Z,100.00
2023-01-25T18:26:52.661Z,100.00
2023-01-25T18:30:01.741Z,100.00
2023-01-25T18:33:05.937Z,100.00
2023-01-25T18:36:10.139Z,100.00
2023-01-25T18:39:13.284Z,100.00
2023-01-25T18:42:17.153Z,100.00
2023-01-25T18:45:24.512Z,100.00
2023-01-25T18:48:31.164Z,100.00
2023-01-25T18:51:38.924Z,100.00
2023-01-25T18:54:49.887Z,100.00
2023-01-25T18:57:53.478Z,100.00
2023-01-25T19:01:26.345Z,100.00
2023-01-25T19:04:31.087Z,100.00
2023-01-25T19:07:34.837Z,100.00
2023-01-25T19:10:38.272Z,100.00
2023-01-25T19:13:43.164Z,100.00
2023-01-25T19:16:46.680Z,100.00
2023-01-25T19:19:49.519Z,100.00
2023-01-25T19:22:54.125Z,100.00
2023-01-25T19:25:56.941Z,100.00
2023-01-25T19:28:59.850Z,100.00
2023-01-25T19:32:02.791Z,100.00
2023-01-25T19:35:08.605Z,100.00
2023-01-25T19:38:11.845Z,100.00
2023-01-25T19:41:17.184Z,100.00
2023-01-25T19:44:20.833Z,100.00
2023-01-25T19:47:23.729Z,100.00
2023-01-25T19:50:27.068Z,100.00
2023-01-25T19:53:30.522Z,100.00
2023-01-25T19:56:44.128Z,100.00
2023-01-25T19:59:48.213Z,100.00
2023-01-25T20:02:52.389Z,100.00
2023-01-25T20:06:00.530Z,100.00
2023-01-25T20:09:04.135Z,100.00
2023-01-25T20:12:09.375Z,100.00
2023-01-25T20:15:14.398Z,100.00
2023-01-25T20:18:17.993Z,100.00
2023-01-25T20:21:22.686Z,100.00
2023-01-25T20:24:26.759Z,100.00
2023-01-25T20:27:29.771Z,100.00
2023-01-25T20:30:34.512Z,100.00
2023-01-25T20:33:37.556Z,100.00
2023-01-25T20:36:41.693Z,100.00
2023-01-25T20:39:44.398Z,100.00
2023-01-25T20:42:48.029Z,100.00
2023-01-25T20:45:55.279Z,100.00
2023-01-25T20:48:58.742Z,100.00
2023-01-25T20:52:02.011Z,100.00
2023-01-25T20:55:05.659Z,100.00
2023-01-25T20:58:11.944Z,100.00
2023-01-25T21:01:17.389Z,100.00
2023-01-25T21:04:20.255Z,100.00
2023-01-25T21:07:23.207Z,100.00
2023-01-25T21:10:26.198Z,100.00
2023-01-25T21:13:29.730Z,100.00
2023-01-25T21:16:32.491Z,100.00
2023-01-25T21:19:36.068Z,100.00
2023-01-25T21:22:39.194Z,100.00
2023-01-25T21:25:42.606Z,100.00
2023-01-25T21:28:46.338Z,100.00
2023-01-25T21:31:51.297Z,100.00
2023-01-25T21:34:54.046Z,100.00
2023-01-25T21:37:56.929Z,100.00
2023-01-25T21:41:03.988Z,100.00
2023-01-25T21:44:25.296Z,100.00
2023-01-25T21:47:31.474Z,100.00
2023-01-25T21:50:53.131Z,100.00
2023-01-25T21:53:55.763Z,100.00
2023-01-25T21:56:59.999Z,100.00
2023-01-25T22:00:04.765Z,100.00
2023-01-25T22:03:07.432Z,100.00
2023-01-25T22:06:10.118Z,100.00
2023-01-25T22:09:14.447Z,100.00
2023-01-25T22:12:17.476Z,100.00
2023-01-25T22:15:20.771Z,100.00
2023-01-25T22:18:23.631Z,100.00
2023-01-25T22:21:32.349Z,100.00
2023-01-25T22:24:35.089Z,100.00
2023-01-25T22:27:47.198Z,100.00
2023-01-25T22:30:50.633Z,100.00
2023-01-25T22:33:54.341Z,100.00
2023-01-25T22:36:57.431Z,100.00
2023-01-25T22:40:00.239Z,100.00
2023-01-25T22:43:03.477Z,100.00
2023-01-25T22:46:07.777Z,100.00
2023-01-25T22:49:10.525Z,100.00
2023-01-25T22:52:13.268Z,100.00
2023-01-25T22:55:16.000Z,100.00
2023-01-25T22:58:19.003Z,100.00
2023-01-25T23:01:26.993Z,100.00
2023-01-25T23:04:30.771Z,100.00
2023-01-25T23:07:35.145Z,100.00
2023-01-25T23:10:37.873Z,100.00
2023-01-25T23:13:41.303Z,100.00
2023-01-25T23:16:45.141Z,100.00
2023-01-25T23:19:47.796Z,100.00
2023-01-25T23:22:51.649Z,100.00
2023-01-25T23:25:54.376Z,100.00
2023-01-25T23:28:58.264Z,100.00
2023-01-25T23:32:00.933Z,100.00
2023-01-25T23:35:03.920Z,100.00
2023-01-25T23:38:15.610Z,100.00
2023-01-25T23:41:19.977Z,100.00
2023-01-25T23:44:22.595Z,100.00
2023-01-25T23:47:25.210Z,100.00
2023-01-25T23:50:27.987Z,100.00
2023-01-25T23:53:33.941Z,100.00
2023-01-25T23:56:36.620Z,100.00
2023-01-25T23:59:39.320Z,100.00
